Cedar Beach, New Jersey
Current Conditions -  °F | °C
As of 6:35 PM on Wednesday 17 Dec 2014 (Local Time) from KLDJ Reporting Station
Overcast Overcast  
Wind Chill: 51°   Ceiling: 4100
Heat Index: 51°   Visibility: 10mi
Dew Point: 35°   Wind: 14mph
Humidity: 55%   Direction: 290°WNW
Pressure: 29.9"   Gusts: NA
Location:  40.431°N, 74.1031°W
Report Text: KLDJ 172335Z AUTO 29012KT 10SM BKN041 OVC048 11/02 A2990 RMK AO2 T01050019
Loading
Personal Weather Stations






























Interactive Weather Map New forecast layout! Learn more

10-Day Weather Forecast

Advertisements
Track Severe Weather on mobile